Time,TemperatureF,DewpointF,PressureIn,WindDirection,WindDirectionDegrees,WindSpeedMPH,WindSpeedGustMPH,Humidity,HourlyPrecipIn,Conditions,Clouds,dailyrainin,SoftwareType,DateUTC
2013-02-03 00:12:00,27.4,24.0,29.98,ESE,110,0.0,0.0,85,0.00,,,0.00,weatherlink.com 1.10,2013-02-03 05:12:00,
2013-02-03 00:27:00,27.3,23.0,29.97,ESE,110,0.0,0.0,85,0.00,,,0.00,weatherlink.com 1.10,2013-02-03 05:27:00,
2013-02-03 00:42:00,27.2,24.0,29.96,ESE,110,0.0,0.0,86,0.00,,,0.00,weatherlink.com 1.10,2013-02-03 05:42:00,
2013-02-03 00:57:00,27.2,24.0,29.96,ESE,110,0.0,0.0,86,0.00,,,0.00,weatherlink.com 1.10,2013-02-03 05:57:00,
2013-02-03 01:12:00,27.2,24.0,29.95,ESE,110,0.0,0.0,87,0.00,,,0.00,weatherlink.com 1.10,2013-02-03 06:12:00,
2013-02-03 01:27:00,27.1,24.0,29.95,NNE,27,0.0,2.0,86,0.00,,,0.00,weatherlink.com 1.10,2013-02-03 06:27:00,
2013-02-03 01:42:00,26.6,23.0,29.94,NNE,27,0.0,0.0,86,0.00,,,0.00,weatherlink.com 1.10,2013-02-03 06:42:00,
2013-02-03 01:57:00,26.0,22.0,29.94,NNE,27,0.0,1.0,86,0.00,,,0.00,weatherlink.com 1.10,2013-02-03 06:57:00,
2013-02-03 02:12:00,25.5,22.0,29.93,NNE,27,0.0,0.0,87,0.00,,,0.00,weatherlink.com 1.10,2013-02-03 07:12:00,
2013-02-03 02:27:00,25.4,22.0,29.93,NNE,27,0.0,0.0,86,0.00,,,0.00,weatherlink.com 1.10,2013-02-03 07:27:00,
2013-02-03 02:42:00,25.4,22.0,29.92,NNE,27,0.0,1.0,86,0.00,,,0.00,weatherlink.com 1.10,2013-02-03 07:42:00,
2013-02-03 02:57:00,25.2,21.0,29.92,NNE,24,0.0,1.0,85,0.00,,,0.00,weatherlink.com 1.10,2013-02-03 07:57:00,
2013-02-03 03:12:00,24.9,21.0,29.91,North,11,0.0,0.0,85,0.00,,,0.00,weatherlink.com 1.10,2013-02-03 08:12:00,
2013-02-03 03:27:00,24.4,21.0,29.91,North,11,0.0,0.0,87,0.00,,,0.00,weatherlink.com 1.10,2013-02-03 08:27:00,
2013-02-03 03:43:00,23.7,21.0,29.90,North,11,0.0,0.0,88,0.00,,,0.00,weatherlink.com 1.10,2013-02-03 08:43:00,
2013-02-03 03:58:00,23.1,20.0,29.89,North,11,0.0,0.0,88,0.00,,,0.00,weatherlink.com 1.10,2013-02-03 08:58:00,
2013-02-03 04:13:00,22.8,20.0,29.89,North,11,0.0,0.0,90,0.00,,,0.00,weatherlink.com 1.10,2013-02-03 09:13:00,
2013-02-03 04:28:00,23.2,21.0,29.89,North,11,0.0,0.0,92,0.00,,,0.00,weatherlink.com 1.10,2013-02-03 09:28:00,
2013-02-03 04:43:00,23.6,22.0,29.89,North,11,0.0,0.0,92,0.00,,,0.00,weatherlink.com 1.10,2013-02-03 09:43:00,
2013-02-03 04:58:00,24.0,22.0,29.89,NNE,17,1.0,1.0,91,0.00,,,0.00,weatherlink.com 1.10,2013-02-03 09:58:00,
2013-02-03 05:13:00,24.2,22.0,29.89,East,86,1.0,2.0,90,0.00,,,0.00,weatherlink.com 1.10,2013-02-03 10:13:00,
2013-02-03 05:28:00,24.1,22.0,29.89,East,90,0.0,3.0,90,0.00,,,0.00,weatherlink.com 1.10,2013-02-03 10:28:00,
2013-02-03 05:43:00,24.0,22.0,29.89,ENE,66,0.0,1.0,91,0.00,,,0.00,weatherlink.com 1.10,2013-02-03 10:43:00,
2013-02-03 05:58:00,24.1,22.0,29.89,NE,47,0.0,2.0,91,0.00,,,0.00,weatherlink.com 1.10,2013-02-03 10:58:00,
2013-02-03 06:13:00,24.1,22.0,29.89,NE,47,0.0,0.0,91,0.00,,,0.00,weatherlink.com 1.10,2013-02-03 11:13:00,
2013-02-03 06:28:00,24.1,22.0,29.89,NE,47,0.0,0.0,91,0.00,,,0.00,weatherlink.com 1.10,2013-02-03 11:28:00,
2013-02-03 06:43:00,24.0,22.0,29.89,NE,47,0.0,0.0,91,0.00,,,0.00,weatherlink.com 1.10,2013-02-03 11:43:00,
2013-02-03 06:58:00,24.0,22.0,29.89,NE,47,0.0,0.0,92,0.00,,,0.00,weatherlink.com 1.10,2013-02-03 11:58:00,
2013-02-03 07:13:00,24.1,22.0,29.90,NE,47,0.0,0.0,92,0.00,,,0.00,weatherlink.com 1.10,2013-02-03 12:13:00,
2013-02-03 07:28:00,24.1,22.0,29.90,NE,47,0.0,0.0,92,0.00,,,0.00,weatherlink.com 1.10,2013-02-03 12:28:00,
2013-02-03 07:43:00,24.1,22.0,29.90,NE,47,0.0,0.0,92,0.00,,,0.00,weatherlink.com 1.10,2013-02-03 12:43:00,
2013-02-03 07:58:00,24.3,22.0,29.90,NE,47,0.0,0.0,92,0.00,,,0.00,weatherlink.com 1.10,2013-02-03 12:58:00,
2013-02-03 08:13:00,24.7,23.0,29.90,NE,47,0.0,0.0,92,0.00,,,0.00,weatherlink.com 1.10,2013-02-03 13:13:00,
2013-02-03 08:28:00,25.1,23.0,29.90,NE,47,0.0,0.0,92,0.00,,,0.00,weatherlink.com 1.10,2013-02-03 13:28:00,
2013-02-03 08:43:00,25.5,23.0,29.90,NE,47,0.0,0.0,91,0.00,,,0.00,weatherlink.com 1.10,2013-02-03 13:43:00,
2013-02-03 08:58:00,26.0,24.0,29.90,NE,47,0.0,0.0,90,0.00,,,0.00,weatherlink.com 1.10,2013-02-03 13:58:00,
2013-02-03 09:13:00,26.4,24.0,29.89,NE,47,0.0,0.0,90,0.00,,,0.00,weatherlink.com 1.10,2013-02-03 14:13:00,
2013-02-03 09:28:00,26.8,24.0,29.89,NE,47,0.0,0.0,90,0.00,,,0.00,weatherlink.com 1.10,2013-02-03 14:28:00,
2013-02-03 09:43:00,27.1,25.0,29.89,NE,47,0.0,0.0,90,0.00,,,0.00,weatherlink.com 1.10,2013-02-03 14:43:00,
2013-02-03 09:58:00,27.7,25.0,29.89,NE,44,0.0,2.0,90,0.00,,,0.00,weatherlink.com 1.10,2013-02-03 14:58:00,
2013-02-03 10:13:00,28.1,25.0,29.88,NE,43,0.0,0.0,89,0.00,,,0.00,weatherlink.com 1.10,2013-02-03 15:13:00,
2013-02-03 10:28:00,28.4,26.0,29.88,NNW,341,0.0,1.0,89,0.00,,,0.00,weatherlink.com 1.10,2013-02-03 15:28:00,
2013-02-03 10:43:00,28.7,26.0,29.88,NNW,333,0.0,1.0,88,0.00,,,0.00,weatherlink.com 1.10,2013-02-03 15:43:00,
2013-02-03 10:58:00,29.1,26.0,29.88,NNW,333,0.0,2.0,88,0.00,,,0.00,weatherlink.com 1.10,2013-02-03 15:58:00,
2013-02-03 11:13:00,29.2,26.0,29.87,NNW,333,0.0,0.0,89,0.00,,,0.00,weatherlink.com 1.10,2013-02-03 16:13:00,
2013-02-03 11:28:00,29.5,27.0,29.86,NNW,333,0.0,0.0,89,0.00,,,0.00,weatherlink.com 1.10,2013-02-03 16:28:00,
2013-02-03 11:58:00,29.9,27.0,29.85,SW,227,0.0,2.0,89,0.00,,,0.00,weatherlink.com 1.10,2013-02-03 16:58:00,
2013-02-03 12:13:00,30.4,28.0,29.84,SE,133,0.0,2.0,90,0.00,,,0.00,weatherlink.com 1.10,2013-02-03 17:13:00,
2013-02-03 12:29:00,30.3,28.0,29.83,SE,141,2.0,3.0,90,0.00,,,0.00,weatherlink.com 1.10,2013-02-03 17:29:00,
2013-02-03 12:44:00,30.5,28.0,29.83,ESE,109,0.0,3.0,89,0.00,,,0.00,weatherlink.com 1.10,2013-02-03 17:44:00,
2013-02-03 12:59:00,31.5,28.0,29.82,SSW,196,3.0,4.0,88,0.00,,,0.00,weatherlink.com 1.10,2013-02-03 17:59:00,
2013-02-03 13:14:00,32.1,29.0,29.80,ENE,76,3.0,5.0,88,0.00,,,0.00,weatherlink.com 1.10,2013-02-03 18:14:00,
2013-02-03 13:29:00,32.9,29.0,29.80,SSW,197,1.0,3.0,86,0.00,,,0.00,weatherlink.com 1.10,2013-02-03 18:29:00,
2013-02-03 13:44:00,34.2,29.0,29.79,SSW,209,1.0,4.0,80,0.01,,,0.01,weatherlink.com 1.10,2013-02-03 18:44:00,
2013-02-03 13:59:00,34.3,28.0,29.78,SW,223,2.0,5.0,78,0.01,,,0.01,weatherlink.com 1.10,2013-02-03 18:59:00,
2013-02-03 14:14:00,34.6,28.0,29.78,SE,127,0.0,5.0,78,0.01,,,0.01,weatherlink.com 1.10,2013-02-03 19:14:00,
2013-02-03 14:29:00,34.3,28.0,29.78,SE,137,1.0,6.0,77,0.01,,,0.01,weatherlink.com 1.10,2013-02-03 19:29:00,
2013-02-03 14:44:00,34.2,29.0,29.78,WSW,237,1.0,4.0,80,0.00,,,0.01,weatherlink.com 1.10,2013-02-03 19:44:00,
2013-02-03 14:59:00,34.4,29.0,29.78,South,182,1.0,4.0,82,0.00,,,0.01,weatherlink.com 1.10,2013-02-03 19:59:00,
2013-02-03 15:14:00,34.5,29.0,29.79,SW,221,3.0,8.0,81,0.00,,,0.01,weatherlink.com 1.10,2013-02-03 20:14:00,
2013-02-03 15:29:00,34.3,30.0,29.79,South,191,2.0,4.0,83,0.00,,,0.01,weatherlink.com 1.10,2013-02-03 20:29:00,
2013-02-03 15:44:00,34.2,29.0,29.78,SSE,160,0.0,5.0,82,0.00,,,0.01,weatherlink.com 1.10,2013-02-03 20:44:00,
2013-02-03 15:59:00,34.0,29.0,29.78,SSE,156,4.0,6.0,83,0.00,,,0.01,weatherlink.com 1.10,2013-02-03 20:59:00,
2013-02-03 16:15:00,33.9,29.0,29.79,SSW,192,2.0,5.0,82,0.00,,,0.01,weatherlink.com 1.10,2013-02-03 21:15:00,
2013-02-03 16:29:00,33.8,29.0,29.79,South,181,0.0,5.0,83,0.00,,,0.01,weatherlink.com 1.10,2013-02-03 21:29:00,
2013-02-03 16:44:00,33.4,30.0,29.80,West,273,1.0,3.0,87,0.00,,,0.01,weatherlink.com 1.10,2013-02-03 21:44:00,
2013-02-03 16:59:00,33.0,30.0,29.79,WNW,289,0.0,1.0,88,0.00,,,0.01,weatherlink.com 1.10,2013-02-03 21:59:00,
2013-02-03 17:14:00,32.6,30.0,29.79,SSW,212,0.0,2.0,89,0.00,,,0.01,weatherlink.com 1.10,2013-02-03 22:14:00,
2013-02-03 17:29:00,32.2,30.0,29.79,SSW,212,0.0,0.0,90,0.00,,,0.01,weatherlink.com 1.10,2013-02-03 22:29:00,
2013-02-03 17:44:00,31.6,29.0,29.79,SW,232,0.0,0.0,90,0.00,,,0.01,weatherlink.com 1.10,2013-02-03 22:44:00,
2013-02-03 17:59:00,31.3,29.0,29.80,WSW,258,0.0,0.0,91,0.00,,,0.01,weatherlink.com 1.10,2013-02-03 22:59:00,
2013-02-03 18:14:00,31.1,29.0,29.80,WSW,258,0.0,0.0,92,0.00,,,0.01,weatherlink.com 1.10,2013-02-03 23:14:00,
2013-02-03 18:29:00,30.8,29.0,29.81,North,349,0.0,1.0,92,0.00,,,0.01,weatherlink.com 1.10,2013-02-03 23:29:00,
2013-02-03 18:44:00,30.7,29.0,29.82,North,349,0.0,0.0,93,0.00,,,0.01,weatherlink.com 1.10,2013-02-03 23:44:00,
2013-02-03 18:59:00,31.9,26.0,29.83,NNW,345,1.0,10.0,78,0.00,,,0.01,weatherlink.com 1.10,2013-02-03 23:59:00,
2013-02-03 19:14:00,33.4,24.0,29.83,NW,307,10.0,16.0,68,0.00,,,0.01,weatherlink.com 1.10,2013-02-04 00:14:00,
2013-02-03 19:29:00,33.6,23.0,29.84,NW,311,3.0,12.0,66,0.00,,,0.01,weatherlink.com 1.10,2013-02-04 00:29:00,
2013-02-03 19:44:00,33.4,22.0,29.84,NW,306,8.0,14.0,64,0.00,,,0.01,weatherlink.com 1.10,2013-02-04 00:44:00,
2013-02-03 19:59:00,33.3,23.0,29.85,WNW,300,3.0,10.0,65,0.00,,,0.01,weatherlink.com 1.10,2013-02-04 00:59:00,
2013-02-03 20:14:00,33.0,22.0,29.87,WNW,302,4.0,18.0,64,0.00,,,0.01,weatherlink.com 1.10,2013-02-04 01:14:00,
2013-02-03 20:29:00,32.6,21.0,29.87,NW,304,4.0,17.0,63,0.00,,,0.01,weatherlink.com 1.10,2013-02-04 01:29:00,
2013-02-03 20:44:00,31.6,22.0,29.88,WNW,295,5.0,21.0,68,0.00,,,0.01,weatherlink.com 1.10,2013-02-04 01:44:00,
2013-02-03 20:59:00,31.4,20.0,29.89,SSW,206,10.0,18.0,62,0.00,,,0.01,weatherlink.com 1.10,2013-02-04 01:59:00,
2013-02-03 21:14:00,31.4,18.0,29.89,NW,315,4.0,18.0,57,0.00,,,0.01,weatherlink.com 1.10,2013-02-04 02:14:00,
2013-02-03 21:29:00,31.2,17.0,29.90,NW,316,8.0,18.0,56,0.00,,,0.01,weatherlink.com 1.10,2013-02-04 02:29:00,
2013-02-03 21:44:00,30.3,19.0,29.91,NW,314,2.0,13.0,62,0.00,,,0.01,weatherlink.com 1.10,2013-02-04 02:44:00,
2013-02-03 21:59:00,29.7,18.0,29.91,WNW,301,4.0,10.0,63,0.00,,,0.01,weatherlink.com 1.10,2013-02-04 02:59:00,
2013-02-03 22:14:00,29.6,18.0,29.91,NW,320,3.0,8.0,63,0.00,,,0.01,weatherlink.com 1.10,2013-02-04 03:14:00,
2013-02-03 22:29:00,29.6,18.0,29.91,NW,320,7.0,13.0,62,0.00,,,0.01,weatherlink.com 1.10,2013-02-04 03:29:00,
2013-02-03 22:44:00,29.8,17.0,29.91,WNW,302,4.0,15.0,58,0.00,,,0.01,weatherlink.com 1.10,2013-02-04 03:44:00,
2013-02-03 22:59:00,29.9,15.0,29.92,NW,315,4.0,17.0,55,0.00,,,0.01,weatherlink.com 1.10,2013-02-04 03:59:00,
2013-02-03 23:14:00,29.4,14.0,29.93,NW,309,8.0,16.0,54,0.00,,,0.01,weatherlink.com 1.10,2013-02-04 04:14:00,
2013-02-03 23:30:00,28.5,14.0,29.94,NW,322,5.0,23.0,54,0.00,,,0.01,weatherlink.com 1.10,2013-02-04 04:30:00,
2013-02-03 23:45:00,27.7,13.0,29.95,NW,318,2.0,15.0,55,0.00,,,0.01,weatherlink.com 1.10,2013-02-04 04:45:00,